Time;durP1;ratioP1;P1;durP2;ratioP2;P2;SDS_P1;SDS_P2;PMS_P1;PMS_P2;Temp;Humidity;BMP_temperature;BMP_pressure;BME280_temperature;BME280_humidity;BME280_pressure;Samples;Min_cycle;Max_cycle;Signal;HPM_P1;HPM_P2
2022/02/16 00:01:52;;;;;;;44.57;22.27;;;;;;;13.48;100.00;100151.56;4895550;29;20076;-46
2022/02/16 00:04:17;;;;;;;46.40;23.57;;;;;;;13.96;100.00;100140.81;4888318;29;20048;-47
2022/02/16 00:06:42;;;;;;;60.60;24.93;;;;;;;13.70;100.00;100130.31;4889372;29;20029;-47
2022/02/16 00:09:08;;;;;;;43.63;23.63;;;;;;;13.53;100.00;100138.25;4894748;29;20037;-49
2022/02/16 00:11:33;;;;;;;48.37;25.40;;;;;;;13.62;100.00;100122.59;4883933;29;20276;-48
2022/02/16 00:13:59;;;;;;;52.42;23.83;;;;;;;13.58;100.00;100118.75;4894816;29;20046;-45
2022/02/16 00:16:25;;;;;;;52.35;24.67;;;;;;;13.66;100.00;100115.69;4888943;29;20045;-49
2022/02/16 00:18:51;;;;;;;45.60;22.38;;;;;;;13.79;100.00;100122.72;4888152;29;20049;-47
2022/02/16 00:21:16;;;;;;;54.60;22.83;;;;;;;13.87;100.00;100117.00;4895561;29;20041;-45
2022/02/16 00:23:41;;;;;;;40.97;23.13;;;;;;;14.23;100.00;100118.78;4883778;29;20080;-47
2022/02/16 00:26:07;;;;;;;40.23;22.13;;;;;;;13.89;100.00;100120.25;4893864;29;20045;-47
2022/02/16 00:28:32;;;;;;;38.10;20.67;;;;;;;13.91;100.00;100111.94;4889687;29;20100;-45
2022/02/16 00:30:58;;;;;;;43.67;20.45;;;;;;;13.99;100.00;100098.16;4870820;29;20037;-45
2022/02/16 00:33:23;;;;;;;43.97;20.40;;;;;;;13.57;100.00;100090.25;4896213;29;20036;-48
2022/02/16 00:35:49;;;;;;;37.17;19.40;;;;;;;13.85;100.00;100091.41;4883015;29;20056;-47
2022/02/16 00:38:15;;;;;;;38.63;20.40;;;;;;;14.07;100.00;100083.53;4892643;29;20127;-47
2022/02/16 00:40:40;;;;;;;42.00;19.17;;;;;;;13.74;100.00;100085.81;4890603;29;20037;-46
2022/02/16 00:43:07;;;;;;;46.85;19.70;;;;;;;13.55;100.00;100076.22;4886288;29;20048;-50
2022/02/16 00:45:32;;;;;;;33.97;17.88;;;;;;;13.44;100.00;100067.13;4895670;29;20037;-50
2022/02/16 00:48:02;;;;;;;40.53;19.70;;;;;;;13.38;100.00;100068.84;4868884;29;20045;-46
2022/02/16 00:50:31;;;;;;;39.47;19.52;;;;;;;13.40;100.00;100065.94;4890305;29;20034;-47
2022/02/16 00:52:57;;;;;;;35.85;18.27;;;;;;;13.48;100.00;100055.66;4876186;29;20041;-47
2022/02/16 00:55:28;;;;;;;39.70;19.35;;;;;;;13.34;100.00;100057.72;4883717;29;20085;-51
2022/02/16 00:57:54;;;;;;;34.35;19.13;;;;;;;13.68;100.00;100054.47;4902989;29;20052;-52
2022/02/16 01:00:22;;;;;;;37.17;18.27;;;;;;;13.54;100.00;100048.53;4883304;29;20056;-48
2022/02/16 01:02:51;;;;;;;40.45;18.30;;;;;;;13.60;100.00;100054.84;4876044;29;20043;-48
2022/02/16 01:05:18;;;;;;;32.28;17.65;;;;;;;13.53;100.00;100035.38;4897869;29;20076;-50
2022/02/16 01:07:43;;;;;;;31.37;16.57;;;;;;;13.89;100.00;100042.31;4883936;29;20073;-47
2022/02/16 01:10:11;;;;;;;31.73;16.95;;;;;;;13.84;100.00;100036.00;4889164;29;20044;-45
2022/02/16 01:12:42;;;;;;;34.50;17.02;;;;;;;13.90;100.00;100040.44;4876493;29;20034;-46
2022/02/16 01:15:09;;;;;;;32.25;16.48;;;;;;;13.53;100.00;100024.63;4882421;29;20056;-46
2022/02/16 01:17:39;;;;;;;27.88;15.35;;;;;;;13.67;100.00;100041.31;4882949;29;20061;-46
2022/02/16 01:20:38;;;;;;;29.75;16.02;;;;;;;13.34;100.00;100016.66;4886746;29;20082;-50
2022/02/16 01:23:09;;;;;;;32.60;17.23;;;;;;;13.44;100.00;100024.16;4893530;29;20037;-48
2022/02/16 01:25:37;;;;;;;26.23;15.38;;;;;;;13.60;100.00;100015.34;4900072;29;20096;-48
2022/02/16 01:28:11;;;;;;;29.52;15.55;;;;;;;13.43;100.00;100017.94;4880172;29;20090;-46
2022/02/16 01:30:39;;;;;;;35.92;17.23;;;;;;;13.30;100.00;99997.50;4892506;29;20029;-48
2022/02/16 01:33:19;;;;;;;35.22;17.60;;;;;;;13.51;100.00;99989.13;4871536;29;20041;-49
2022/02/16 01:35:48;;;;;;;37.70;17.80;;;;;;;13.27;100.00;100003.34;4882453;29;20041;-50
2022/02/16 01:38:14;;;;;;;35.88;17.98;;;;;;;13.68;100.00;100032.19;4889962;29;20048;-46
2022/02/16 01:40:46;;;;;;;35.17;17.75;;;;;;;13.97;100.00;99998.13;4875405;29;20052;-48
2022/02/16 01:43:12;;;;;;;35.13;19.60;;;;;;;13.56;100.00;100008.81;4896428;29;20098;-47
2022/02/16 01:45:42;;;;;;;38.92;19.33;;;;;;;13.73;100.00;99997.34;4870769;29;20059;-46
2022/02/16 01:48:09;;;;;;;36.78;17.52;;;;;;;13.81;100.00;100004.25;4885376;29;20057;-51
2022/02/16 01:50:36;;;;;;;38.03;19.17;;;;;;;13.52;100.00;100010.34;4902182;29;20048;-46
2022/02/16 01:53:02;;;;;;;38.05;18.70;;;;;;;13.37;100.00;99980.44;4902047;29;20033;-48
2022/02/16 01:55:31;;;;;;;41.28;19.33;;;;;;;13.50;100.00;99977.53;4869891;29;20051;-46
2022/02/16 01:57:58;;;;;;;32.75;16.02;;;;;;;13.39;100.00;99967.63;4881603;29;20041;-47
2022/02/16 02:00:44;;;;;;;50.45;21.08;;;;;;;13.43;100.00;99963.44;4876285;29;20057;-47
2022/02/16 02:03:10;;;;;;;42.55;21.08;;;;;;;13.32;100.00;99960.47;4871939;29;20058;-50
2022/02/16 02:05:45;;;;;;;45.78;20.55;;;;;;;13.41;100.00;99946.72;4883204;29;20049;-49
2022/02/16 02:08:11;;;;;;;36.35;17.20;;;;;;;13.27;100.00;99946.16;4865962;29;20041;-48
2022/02/16 02:10:37;;;;;;;39.85;18.23;;;;;;;13.45;100.00;99937.16;4889625;29;20048;-49
2022/02/16 02:13:02;;;;;;;37.40;18.10;;;;;;;13.41;100.00;99946.72;4882728;29;20097;-47
2022/02/16 02:15:49;;;;;;;42.13;19.05;;;;;;;13.50;100.00;99926.50;4868153;29;20041;-48
2022/02/16 02:18:20;;;;;;;36.83;17.40;;;;;;;13.54;100.00;99935.72;4867352;29;20096;-49
2022/02/16 02:20:46;;;;;;;33.45;17.67;;;;;;;13.38;100.00;99913.06;4883474;29;20037;-47
2022/02/16 02:23:14;;;;;;;35.15;18.17;;;;;;;13.32;100.00;99901.41;4867362;29;20034;-49
2022/02/16 02:25:51;;;;;;;35.00;16.30;;;;;;;13.49;100.00;99906.06;4883338;29;20042;-47
2022/02/16 02:28:19;;;;;;;41.28;18.30;;;;;;;13.40;100.00;99905.59;4889993;29;20137;-49
2022/02/16 02:30:47;;;;;;;38.58;17.20;;;;;;;13.46;100.00;99903.88;4888438;29;20062;-44
2022/02/16 02:33:13;;;;;;;27.87;14.53;;;;;;;13.44;100.00;99914.03;4888501;29;20033;-44
2022/02/16 02:35:39;;;;;;;29.70;14.00;;;;;;;13.26;100.00;99907.72;4865083;29;20042;-47
2022/02/16 02:38:06;;;;;;;28.98;14.18;;;;;;;13.46;100.00;99896.63;4866382;29;20045;-46
2022/02/16 02:40:32;;;;;;;25.73;12.90;;;;;;;13.50;100.00;99877.38;4866833;29;20037;-47
2022/02/16 02:42:57;;;;;;;28.48;14.57;;;;;;;13.50;100.00;99891.59;4883145;29;20045;-47
2022/02/16 02:45:28;;;;;;;27.58;14.70;;;;;;;13.32;100.00;99897.91;4882226;29;20044;-45
2022/02/16 02:47:54;;;;;;;24.55;14.93;;;;;;;13.34;100.00;99885.88;4864183;29;20384;-47
2022/02/16 02:50:20;;;;;;;23.80;13.60;;;;;;;13.52;100.00;99881.41;4866624;29;20037;-45
2022/02/16 02:52:45;;;;;;;28.17;14.07;;;;;;;13.31;100.00;99878.28;4882831;29;20048;-48
2022/02/16 02:55:12;;;;;;;30.05;15.13;;;;;;;13.61;100.00;99874.63;4866568;29;20055;-46
2022/02/16 02:57:41;;;;;;;26.60;14.20;;;;;;;13.62;100.00;99881.63;4867620;29;20033;-48
2022/02/16 03:00:10;;;;;;;25.48;13.48;;;;;;;13.46;100.00;99866.28;4866791;29;20025;-46
2022/02/16 03:02:36;;;;;;;26.92;15.43;;;;;;;13.50;100.00;99874.69;4889470;29;20041;-47
2022/02/16 03:05:03;;;;;;;26.45;14.93;;;;;;;13.38;100.00;99874.66;4881826;29;20037;-48
2022/02/16 03:07:29;;;;;;;24.83;13.98;;;;;;;13.30;100.00;99865.91;4881499;29;20037;-48
2022/02/16 03:09:54;;;;;;;26.63;15.27;;;;;;;13.05;100.00;99868.91;4865350;29;20040;-46
2022/02/16 03:12:20;;;;;;;35.90;18.07;;;;;;;13.38;100.00;99848.63;4882523;29;20275;-46
2022/02/16 03:14:46;;;;;;;27.67;15.13;;;;;;;13.30;100.00;99871.28;4882664;29;20104;-46
2022/02/16 03:17:11;;;;;;;25.27;14.18;;;;;;;13.23;100.00;99870.63;4866208;29;20046;-46
2022/02/16 03:19:38;;;;;;;22.88;13.73;;;;;;;13.41;100.00;99861.56;4866690;29;20096;-45
2022/02/16 03:22:04;;;;;;;23.37;12.37;;;;;;;13.31;100.00;99840.69;4866031;29;20045;-47
2022/02/16 03:24:29;;;;;;;19.90;11.05;;;;;;;13.41;100.00;99834.72;4865872;29;20064;-47
2022/02/16 03:26:55;;;;;;;24.05;12.18;;;;;;;13.18;100.00;99824.88;4881348;29;20033;-46
2022/02/16 03:29:33;;;;;;;24.27;12.32;;;;;;;13.03;100.00;99831.56;4866235;29;20041;-47
2022/02/16 03:31:59;;;;;;;23.95;13.75;;;;;;;13.05;100.00;99824.06;4866169;29;20109;-48
2022/02/16 03:34:25;;;;;;;27.33;14.95;;;;;;;13.24;100.00;99823.09;4890313;29;20041;-46
2022/02/16 03:36:50;;;;;;;33.42;17.77;;;;;;;13.15;100.00;99830.72;4865734;29;20046;-47
2022/02/16 03:39:16;;;;;;;25.80;15.70;;;;;;;13.14;100.00;99831.75;4865623;29;20045;-47
2022/02/16 03:41:43;;;;;;;20.48;12.18;;;;;;;13.18;100.00;99800.72;4864995;29;20065;-46
2022/02/16 03:44:11;;;;;;;23.25;11.63;;;;;;;13.14;100.00;99802.22;4865602;29;20036;-47
2022/02/16 03:46:43;;;;;;;21.40;11.38;;;;;;;13.14;100.00;99808.44;4864594;29;20034;-47
2022/02/16 03:49:08;;;;;;;27.02;13.93;;;;;;;13.38;100.00;99808.34;4881032;29;20045;-50
2022/02/16 03:51:34;;;;;;;24.20;11.43;;;;;;;13.15;100.00;99809.25;4865448;29;20041;-47
2022/02/16 03:54:00;;;;;;;25.47;12.90;;;;;;;13.24;100.00;99794.38;4880714;29;20037;-47
2022/02/16 03:56:27;;;;;;;29.05;15.85;;;;;;;12.99;100.00;99784.78;4865219;29;20037;-46
2022/02/16 03:58:53;;;;;;;25.63;12.30;;;;;;;13.24;100.00;99780.97;4864222;29;20074;-45
2022/02/16 04:01:19;;;;;;;27.05;13.70;;;;;;;13.07;100.00;99769.34;4873691;29;20049;-50
2022/02/16 04:03:46;;;;;;;25.67;12.65;;;;;;;13.09;100.00;99768.06;4880883;29;20180;-47
2022/02/16 04:06:12;;;;;;;22.53;12.60;;;;;;;13.05;100.00;99772.28;4881560;29;20021;-45
2022/02/16 04:08:37;;;;;;;22.27;10.97;;;;;;;13.16;100.00;99762.56;4897633;29;20069;-47
2022/02/16 04:11:04;;;;;;;21.17;11.40;;;;;;;13.14;100.00;99756.59;4880160;29;20029;-48
2022/02/16 04:13:30;;;;;;;20.52;11.30;;;;;;;13.09;100.00;99754.66;4880068;29;20037;-48
2022/02/16 04:15:58;;;;;;;19.50;10.20;;;;;;;13.04;100.00;99733.88;4876807;29;20037;-50
2022/02/16 04:18:23;;;;;;;18.33;9.88;;;;;;;13.14;100.00;99737.81;4896631;29;20032;-49
2022/02/16 04:20:50;;;;;;;18.85;10.25;;;;;;;13.11;100.00;99732.91;4896221;29;20044;-46
2022/02/16 04:23:20;;;;;;;19.02;9.80;;;;;;;13.16;100.00;99724.97;4895097;29;20089;-51
2022/02/16 04:25:45;;;;;;;16.83;8.60;;;;;;;13.15;100.00;99723.34;4895127;29;20037;-47
2022/02/16 04:28:12;;;;;;;15.07;8.23;;;;;;;13.03;100.00;99697.34;4898229;29;20029;-46
2022/02/16 04:30:38;;;;;;;14.13;8.57;;;;;;;13.13;100.00;99704.78;4879323;29;20055;-46
2022/02/16 04:33:05;;;;;;;15.50;7.75;;;;;;;12.94;100.00;99688.06;4895839;29;20094;-46
2022/02/16 04:35:31;;;;;;;;;;;;;;;13.07;100.00;99678.09;4879071;29;20024;-50
2022/02/16 04:37:57;;;;;;;11.27;7.23;;;;;;;13.02;100.00;99666.22;4877238;29;19987;-46
2022/02/16 04:40:24;;;;;;;12.90;7.88;;;;;;;12.97;100.00;99660.75;4898010;29;20044;-45
2022/02/16 04:42:50;;;;;;;14.27;8.05;;;;;;;13.15;100.00;99666.97;4878360;29;20037;-46
2022/02/16 04:45:16;;;;;;;16.05;8.80;;;;;;;13.20;100.00;99659.00;4879831;29;20101;-50
2022/02/16 04:47:44;;;;;;;15.50;7.88;;;;;;;13.21;100.00;99652.59;4879429;29;20048;-46
2022/02/16 04:50:12;;;;;;;13.02;8.45;;;;;;;13.22;100.00;99654.22;4897711;29;20040;-49
2022/02/16 04:52:38;;;;;;;16.73;8.30;;;;;;;13.24;100.00;99662.00;4895788;29;20041;-49
2022/02/16 04:55:13;;;;;;;13.68;7.82;;;;;;;13.09;100.00;99638.41;4896302;29;20130;-47
2022/02/16 04:57:40;;;;;;;11.35;6.72;;;;;;;13.46;100.00;99630.72;4894569;29;20058;-44
2022/02/16 05:00:08;;;;;;;11.37;6.67;;;;;;;13.28;100.00;99621.00;4877610;29;20041;-47
2022/02/16 05:02:39;;;;;;;13.30;7.72;;;;;;;12.97;100.00;99628.56;4882935;29;20283;-49
2022/02/16 05:05:07;;;;;;;11.52;6.45;;;;;;;13.27;100.00;99592.53;4888258;29;20097;-49
2022/02/16 05:07:33;;;;;;;11.90;5.72;;;;;;;13.11;100.00;99614.81;4882417;29;20069;-46
2022/02/16 05:09:58;;;;;;;9.23;5.85;;;;;;;13.14;100.00;99584.78;4879257;29;20148;-45
2022/02/16 05:12:25;;;;;;;10.80;6.95;;;;;;;13.02;100.00;99591.06;4882830;29;20044;-52
2022/02/16 05:14:50;;;;;;;9.52;5.65;;;;;;;13.09;100.00;99580.19;4886023;29;20049;-45
2022/02/16 05:17:15;;;;;;;9.60;6.27;;;;;;;12.87;100.00;99606.88;4896311;29;20052;-46
2022/02/16 05:19:43;;;;;;;8.88;5.25;;;;;;;13.01;100.00;99580.56;4893312;29;20029;-46
2022/02/16 05:22:09;;;;;;;12.80;5.15;;;;;;;12.79;100.00;99578.56;4879293;29;20037;-46
2022/02/16 05:24:39;;;;;;;9.88;4.88;;;;;;;12.99;100.00;99559.34;4879203;29;20034;-49
2022/02/16 05:27:05;;;;;;;9.23;5.90;;;;;;;13.44;100.00;99548.81;4890826;29;20040;-51
2022/02/16 05:29:31;;;;;;;12.65;6.07;;;;;;;13.23;100.00;99569.09;4898654;29;20053;-46
2022/02/16 05:32:05;;;;;;;11.25;6.38;;;;;;;13.18;100.00;99543.00;4882546;29;20036;-47
2022/02/16 05:34:32;;;;;;;11.43;5.10;;;;;;;13.13;100.00;99534.84;4882341;29;20093;-47
2022/02/16 05:36:58;;;;;;;12.07;6.32;;;;;;;12.81;100.00;99565.75;4897472;29;20655;-46
2022/02/16 05:39:25;;;;;;;17.80;7.65;;;;;;;12.91;100.00;99551.69;4878834;29;20045;-48
2022/02/16 05:41:51;;;;;;;29.97;7.57;;;;;;;12.98;100.00;99525.53;4895943;29;20082;-46
2022/02/16 05:44:16;;;;;;;17.58;9.05;;;;;;;12.85;100.00;99539.25;4882709;29;20030;-48
2022/02/16 05:46:43;;;;;;;15.57;6.75;;;;;;;13.17;100.00;99518.03;4888176;29;20034;-50
2022/02/16 05:49:10;;;;;;;13.18;6.75;;;;;;;13.06;100.00;99527.00;4885729;29;20041;-46
2022/02/16 05:51:36;;;;;;;30.45;12.60;;;;;;;13.46;100.00;99517.94;4901946;29;20041;-48
2022/02/16 05:54:04;;;;;;;30.52;12.07;;;;;;;13.79;100.00;99501.97;4870701;29;20035;-48
2022/02/16 05:56:32;;;;;;;23.95;12.60;;;;;;;13.47;100.00;99503.44;4878398;29;20044;-49
2022/02/16 05:58:57;;;;;;;22.98;11.00;;;;;;;13.26;100.00;99491.59;4877357;29;20045;-50
2022/02/16 06:01:23;;;;;;;18.58;8.93;;;;;;;13.36;100.00;99484.72;4882070;29;20135;-48
2022/02/16 06:03:54;;;;;;;21.70;9.40;;;;;;;13.29;100.00;99466.91;4897742;29;20037;-46
2022/02/16 06:06:21;;;;;;;16.43;8.27;;;;;;;13.13;100.00;99527.63;4872577;29;20029;-46
2022/02/16 06:08:48;;;;;;;25.05;10.43;;;;;;;12.91;100.00;99473.88;4876148;29;20289;-47
2022/02/16 06:11:14;;;;;;;;;;;;;;;13.02;100.00;99445.31;4895174;29;20453;-48
2022/02/16 06:13:42;;;;;;;20.13;9.27;;;;;;;13.18;100.00;99436.44;4869835;29;19930;-48
2022/02/16 06:16:11;;;;;;;20.13;9.02;;;;;;;13.29;100.00;99441.97;4880474;29;20049;-48
2022/02/16 06:18:37;;;;;;;21.92;10.93;;;;;;;13.24;100.00;99436.50;4889834;29;20037;-50
2022/02/16 06:21:03;;;;;;;21.95;10.88;;;;;;;13.28;100.00;99443.03;4881924;29;20037;-46
2022/02/16 06:23:29;;;;;;;23.87;9.77;;;;;;;13.51;100.00;99419.72;4896316;29;20045;-48
2022/02/16 06:25:54;;;;;;;26.73;10.75;;;;;;;13.68;100.00;99430.38;4885019;29;20067;-47
2022/02/16 06:28:21;;;;;;;;;;;;;;;13.44;100.00;99431.44;4895136;29;20041;-47
2022/02/16 06:30:46;;;;;;;19.40;9.60;;;;;;;13.50;100.00;99402.78;4891552;29;19946;-48
2022/02/16 06:33:15;;;;;;;17.88;8.75;;;;;;;13.42;100.00;99427.38;4872126;29;20061;-50
2022/02/16 06:35:42;;;;;;;;;;;;;;;13.54;100.00;99406.59;4881763;29;20520;-48
2022/02/16 06:38:10;;;;;;;15.30;7.23;;;;;;;13.55;100.00;99424.31;4870266;29;19927;-49
2022/02/16 06:40:36;;;;;;;13.50;6.82;;;;;;;13.88;100.00;99429.81;4877420;29;20037;-53
2022/02/16 06:43:05;;;;;;;16.98;7.45;;;;;;;13.79;100.00;99417.88;4892758;29;20556;-52
2022/02/16 06:45:30;;;;;;;12.00;6.33;;;;;;;13.70;100.00;99406.78;4867775;29;20045;-48
2022/02/16 06:47:58;;;;;;;12.02;6.20;;;;;;;13.66;100.00;99411.03;4866553;29;20032;-46
2022/02/16 06:50:24;;;;;;;39.83;6.85;;;;;;;13.65;100.00;99425.53;4866239;29;20060;-48
2022/02/16 06:52:54;;;;;;;16.85;7.90;;;;;;;13.85;100.00;99420.38;4867034;29;20040;-48
2022/02/16 06:55:20;;;;;;;10.90;5.68;;;;;;;13.72;100.00;99421.56;4870661;29;20065;-53
2022/02/16 06:57:49;;;;;;;10.90;5.43;;;;;;;13.50;100.00;99401.97;4866874;29;20091;-47
2022/02/16 07:00:15;;;;;;;12.90;5.33;;;;;;;13.82;100.00;99422.75;4879791;29;20033;-48
2022/02/16 07:02:47;;;;;;;9.55;5.40;;;;;;;13.89;100.00;99421.50;4883930;29;20037;-48
2022/02/16 07:05:33;;;;;;;10.17;4.63;;;;;;;14.09;100.00;99436.22;4888829;29;20054;-49
2022/02/16 07:08:02;;;;;;;8.60;5.10;;;;;;;13.99;100.00;99430.72;4897331;29;20265;-45
2022/02/16 07:10:28;;;;;;;8.00;3.83;;;;;;;14.27;100.00;99426.97;4871453;29;20276;-48
2022/02/16 07:12:54;;;;;;;6.45;3.78;;;;;;;14.11;100.00;99423.34;4898541;29;20064;-45
2022/02/16 07:15:20;;;;;;;7.07;3.85;;;;;;;14.31;100.00;99438.84;4880904;29;20048;-49
2022/02/16 07:17:50;;;;;;;8.20;4.17;;;;;;;14.38;100.00;99430.56;4882112;29;20056;-49
2022/02/16 07:20:16;;;;;;;7.22;3.97;;;;;;;14.35;100.00;99417.66;4880752;29;20280;-47
2022/02/16 07:22:46;;;;;;;6.60;4.10;;;;;;;14.23;100.00;99430.44;4880937;29;20500;-46
2022/02/16 07:25:13;;;;;;;14.70;4.43;;;;;;;14.07;100.00;99427.59;4881924;29;20053;-50
2022/02/16 07:27:40;;;;;;;6.87;4.00;;;;;;;14.18;100.00;99420.41;4880547;29;20268;-45
2022/02/16 07:30:08;;;;;;;8.35;3.78;;;;;;;14.27;100.00;99410.84;4880021;29;20287;-46
2022/02/16 07:32:40;;;;;;;8.00;4.40;;;;;;;14.46;100.00;99432.78;4881057;29;20067;-47
2022/02/16 07:35:09;;;;;;;7.10;3.97;;;;;;;14.52;100.00;99422.06;4878798;29;20272;-47
2022/02/16 07:37:36;;;;;;;8.87;4.80;;;;;;;14.37;100.00;99420.88;4882975;29;20291;-51
2022/02/16 07:40:04;;;;;;;10.95;4.72;;;;;;;14.38;100.00;99403.69;4880238;29;20284;-49
2022/02/16 07:42:29;;;;;;;8.93;4.17;;;;;;;14.34;100.00;99416.03;4894209;29;20041;-47
2022/02/16 07:45:13;;;;;;;9.10;5.67;;;;;;;14.42;100.00;99407.47;4897033;29;20274;-49
2022/02/16 07:47:41;;;;;;;10.80;5.97;;;;;;;14.42;100.00;99404.00;4867506;29;20673;-49
2022/02/16 07:50:07;;;;;;;9.63;6.03;;;;;;;14.57;100.00;99396.03;4879659;29;20272;-48
2022/02/16 07:53:01;;;;;;;10.10;5.53;;;;;;;14.34;100.00;99402.56;4896354;29;20063;-50
2022/02/16 07:55:33;;;;;;;12.53;7.17;;;;;;;14.88;100.00;99430.47;4879389;29;20290;-47
2022/02/16 07:58:01;;;;;;;14.93;7.63;;;;;;;14.73;100.00;99402.34;4881914;29;20355;-51
2022/02/16 08:00:35;;;;;;;11.93;7.03;;;;;;;14.79;100.00;99403.22;4878250;29;20126;-48
2022/02/16 08:03:14;;;;;;;14.27;7.50;;;;;;;14.60;100.00;99429.69;4881618;29;20355;-48
2022/02/16 08:05:41;;;;;;;12.43;7.32;;;;;;;14.68;100.00;99413.06;4895477;29;20033;-49
2022/02/16 08:08:10;;;;;;;14.70;8.67;;;;;;;14.65;100.00;99443.16;4880700;29;20054;-46
2022/02/16 08:10:37;;;;;;;;;;;;;;;14.87;100.00;99428.84;4899821;29;20264;-48
2022/02/16 08:13:02;;;;;;;17.70;9.57;;;;;;;14.68;100.00;99450.72;4895444;29;19926;-46
2022/02/16 08:15:45;;;;;;;16.07;8.33;;;;;;;14.85;100.00;99463.28;4884521;29;20268;-46
2022/02/16 08:18:13;;;;;;;16.30;10.25;;;;;;;14.97;100.00;99466.56;4897328;29;20362;-49
2022/02/16 08:20:41;;;;;;;30.20;10.10;;;;;;;14.84;100.00;99456.28;4879214;29;20052;-47
2022/02/16 08:23:21;;;;;;;15.30;9.77;;;;;;;14.63;100.00;99472.22;4879833;29;20300;-51
2022/02/16 08:25:47;;;;;;;15.10;9.50;;;;;;;14.81;100.00;99467.56;4880172;29;20351;-46
2022/02/16 08:28:16;;;;;;;13.47;7.77;;;;;;;14.72;100.00;99464.53;4893123;29;20077;-46
2022/02/16 08:30:41;;;;;;;14.70;7.37;;;;;;;14.83;100.00;99468.09;4879233;29;20750;-49
2022/02/16 08:33:13;;;;;;;12.43;8.17;;;;;;;15.45;100.00;99473.88;4878481;29;20040;-49
2022/02/16 08:35:52;;;;;;;11.17;6.67;;;;;;;14.96;100.00;99483.78;4879722;29;20276;-48
2022/02/16 08:38:18;;;;;;;13.87;6.23;;;;;;;15.25;100.00;99502.34;4896080;29;20272;-49
2022/02/16 08:40:43;;;;;;;13.13;6.77;;;;;;;15.01;100.00;99477.66;4895525;29;20044;-48
2022/02/16 08:43:08;;;;;;;10.47;6.33;;;;;;;15.31;100.00;99474.34;4896191;29;20044;-51
2022/02/16 08:45:34;;;;;;;17.83;6.17;;;;;;;14.72;100.00;99478.78;4882139;29;20100;-47
2022/02/16 08:47:59;;;;;;;12.13;5.87;;;;;;;14.89;100.00;99464.38;4880501;29;20044;-48
2022/02/16 08:50:26;;;;;;;14.52;5.75;;;;;;;15.10;100.00;99454.53;4885788;29;20060;-48
2022/02/16 08:52:51;;;;;;;12.02;6.55;;;;;;;15.42;100.00;99458.22;4890137;29;20057;-47
2022/02/16 08:55:16;;;;;;;11.03;5.13;;;;;;;15.34;100.00;99481.91;4892091;29;20033;-47
2022/02/16 08:57:42;;;;;;;10.47;5.47;;;;;;;14.94;100.00;99463.59;4898488;29;20045;-47
2022/02/16 09:00:08;;;;;;;11.63;5.60;;;;;;;15.21;100.00;99476.97;4883311;29;20037;-49
2022/02/16 09:02:36;;;;;;;11.25;4.93;;;;;;;15.31;100.00;99462.75;4882766;29;20056;-50
2022/02/16 09:05:01;;;;;;;9.07;4.90;;;;;;;15.44;100.00;99464.16;4882555;29;20045;-49
2022/02/16 09:07:28;;;;;;;11.77;5.00;;;;;;;15.11;100.00;99487.69;4885217;29;20291;-47
2022/02/16 09:09:53;;;;;;;9.00;4.72;;;;;;;15.14;100.00;99466.44;4895105;29;20037;-47
2022/02/16 09:12:19;;;;;;;14.35;5.80;;;;;;;15.49;100.00;99478.47;4884499;29;20052;-50
2022/02/16 09:14:44;;;;;;;11.60;5.53;;;;;;;15.31;100.00;99471.66;4890881;29;20044;-46
2022/02/16 09:17:09;;;;;;;16.10;7.53;;;;;;;15.39;100.00;99464.97;4894763;29;20037;-50
2022/02/16 09:19:36;;;;;;;15.60;7.40;;;;;;;15.60;100.00;99490.13;4898342;29;20062;-49
2022/02/16 09:22:03;;;;;;;13.30;6.33;;;;;;;15.14;100.00;99508.69;4900199;29;20037;-47
2022/02/16 09:24:30;;;;;;;17.73;8.03;;;;;;;15.40;100.00;99492.69;4896998;29;20293;-46
2022/02/16 09:26:55;;;;;;;18.27;8.70;;;;;;;15.57;100.00;99501.44;4899310;29;20280;-46
2022/02/16 09:29:23;;;;;;;20.73;9.65;;;;;;;15.48;100.00;99517.28;4899200;29;20048;-46
2022/02/16 09:31:50;;;;;;;24.47;9.50;;;;;;;15.57;100.00;99492.53;4896687;29;20037;-48
2022/02/16 09:34:17;;;;;;;26.83;9.93;;;;;;;15.82;100.00;99510.72;4897362;29;20276;-48
2022/02/16 09:36:42;;;;;;;21.55;10.43;;;;;;;15.85;100.00;99493.22;4900886;29;20288;-47
2022/02/16 09:39:08;;;;;;;20.27;10.10;;;;;;;15.74;100.00;99495.06;4899360;29;20048;-46
2022/02/16 09:41:35;;;;;;;23.15;9.23;;;;;;;15.90;100.00;99496.75;4899204;29;20070;-48
2022/02/16 09:44:01;;;;;;;22.17;9.70;;;;;;;15.78;100.00;99491.53;4884438;29;20044;-48
2022/02/16 09:46:27;;;;;;;22.80;10.20;;;;;;;15.99;100.00;99474.69;4882029;29;20720;-47
2022/02/16 09:48:53;;;;;;;;;;;;;;;15.83;100.00;99471.91;4883717;29;20064;-50
2022/02/16 09:51:20;;;;;;;21.30;9.18;;;;;;;15.86;100.00;99479.44;4890019;29;19920;-51
2022/02/16 09:53:47;;;;;;;25.27;8.60;;;;;;;16.00;100.00;99481.69;4885927;29;20037;-48
2022/02/16 09:56:12;;;;;;;26.40;9.50;;;;;;;16.33;100.00;99490.41;4897784;29;20038;-50
2022/02/16 09:58:38;;;;;;;30.17;10.60;;;;;;;16.27;100.00;99496.88;4889315;29;20299;-47
2022/02/16 10:01:13;;;;;;;24.17;9.27;;;;;;;16.61;100.00;99499.09;4891089;29;20053;-53
2022/02/16 10:03:56;;;;;;;31.80;8.57;;;;;;;16.31;100.00;99489.84;4882050;29;20044;-51
2022/02/16 10:06:37;;;;;;;19.17;7.43;;;;;;;16.55;100.00;99482.09;4882341;29;20276;-51
2022/02/16 10:09:04;;;;;;;16.90;7.03;;;;;;;16.42;100.00;99478.03;4879740;29;20283;-48
2022/02/16 10:11:29;;;;;;;31.58;6.55;;;;;;;16.71;100.00;99482.06;4882403;29;20723;-47
2022/02/16 10:14:15;;;;;;;14.47;6.30;;;;;;;17.09;100.00;99481.84;4881728;29;20045;-51
2022/02/16 10:16:40;;;;;;;17.57;5.13;;;;;;;16.80;100.00;99485.03;4880119;29;20042;-46
2022/02/16 10:19:06;;;;;;;17.43;5.37;;;;;;;16.76;100.00;99495.59;4882067;29;20285;-51
2022/02/16 10:21:31;;;;;;;17.27;5.20;;;;;;;16.51;100.00;99489.09;4882207;29;20053;-52
2022/02/16 10:23:57;;;;;;;22.17;4.35;;;;;;;16.55;100.00;99484.78;4880246;29;20037;-50
2022/02/16 10:26:53;;;;;;;16.40;3.60;;;;;;;16.72;100.00;99494.47;4882141;29;20038;-49
2022/02/16 10:29:25;;;;;;;13.57;3.57;;;;;;;17.09;100.00;99495.34;4877991;29;20038;-46
2022/02/16 10:31:50;;;;;;;22.37;4.60;;;;;;;17.38;100.00;99483.94;4882060;29;20285;-52
2022/02/16 10:34:16;;;;;;;17.70;4.77;;;;;;;16.90;100.00;99472.34;4865712;29;20279;-48
2022/02/16 10:36:41;;;;;;;14.00;5.00;;;;;;;17.13;100.00;99459.38;4881564;29;20037;-53
2022/02/16 10:39:13;;;;;;;19.05;5.60;;;;;;;17.11;100.00;99468.88;4881877;29;20284;-51
2022/02/16 10:41:52;;;;;;;20.13;6.50;;;;;;;17.23;100.00;99469.38;4881851;29;20041;-46
2022/02/16 10:44:30;;;;;;;13.00;5.20;;;;;;;16.90;100.00;99488.56;4863889;29;21294;-47
2022/02/16 10:47:04;;;;;;;20.53;6.47;;;;;;;17.29;100.00;99460.16;4875199;29;20280;-50
2022/02/16 10:49:32;;;;;;;23.03;6.73;;;;;;;16.87;100.00;99455.91;4881100;29;20284;-46
2022/02/16 10:52:06;;;;;;;13.37;6.27;;;;;;;16.54;100.00;99488.56;4881245;29;20352;-48
2022/02/16 10:54:32;;;;;;;24.77;7.23;;;;;;;16.88;100.00;99463.72;4879796;29;20281;-49
2022/02/16 10:56:57;;;;;;;20.55;6.93;;;;;;;17.12;100.00;99452.38;4881806;29;20345;-48
2022/02/16 10:59:23;;;;;;;19.13;5.35;;;;;;;16.71;100.00;99433.47;4881494;29;20108;-50
2022/02/16 11:01:50;;;;;;;26.27;6.57;;;;;;;16.59;100.00;99460.75;4881707;29;20105;-48
2022/02/16 11:04:15;;;;;;;20.37;6.07;;;;;;;16.89;100.00;99449.13;4865628;29;20097;-51
2022/02/16 11:06:43;;;;;;;23.58;5.78;;;;;;;16.65;100.00;99434.56;4881382;29;20280;-46
2022/02/16 11:09:25;;;;;;;21.33;5.43;;;;;;;16.42;100.00;99461.84;4881169;29;20045;-48
2022/02/16 11:11:52;;;;;;;20.13;7.53;;;;;;;16.84;100.00;99446.44;4880420;29;20304;-50
2022/02/16 11:14:23;;;;;;;25.73;5.90;;;;;;;16.72;100.00;99479.13;4880799;29;20316;-49
2022/02/16 11:16:49;;;;;;;30.27;6.80;;;;;;;16.89;100.00;99445.63;4864360;29;20317;-51
2022/02/16 11:19:22;;;;;;;13.43;4.40;;;;;;;16.64;100.00;99447.28;4878470;29;20275;-47